Tipton Airport
KFME : rendu visible

Aérodrome :











RETROUVEZ-NOUS SUR...

 
LOGIN :

S'inscrire | Disclaimer

   EN    FR    IT 

 









Légende :    VFR   VFR Marginal   IFR   IFR Intensif   IFR Très Intensif
Visi : 
Plafond : 
>= 8 km
>= 3000ft
5 à 8 km
1000 à 3000 ft
1500m à 5 km
500 à 1000 ft
800 à 1500m
200 à 500 ft
< 800m
< 200 ft
Symboles :   Orages  Brouillard  Fortes neiges  Fortes précipitations  Vent > 20 kt






- Altitude de l'aérodrome : 150 ft


KFME - Tipton

DERNIER METAR :
  • 081003Z AUTO 23003KT 7SM SCT070 OVC100 12/12 A2960 RMK AO1

METARs EXPIRÉS :
  • 080945Z AUTO 21004KT 10SM SCT060 SCT070 OVC110 12/11 A2957 RMK AO1
  • 080924Z AUTO 36003KT 10SM SCT060 BKN075 OVC090 12/12 A2960 RMK AO1
  • 080903Z AUTO 33006KT 7SM SCT050 SCT060 OVC085 12/12 A2963 RMK AO1
  • 080845Z AUTO 34007KT 310V020 7SM SCT065 BKN075 BKN090 12/12 A2963 RMK AO1
  • 080824Z AUTO 32009G22KT 280V350 4SM SCT002 SCT060 10/10 A2965 RMK AO1
  • 080803Z AUTO 00000KT 1SM VV007 10/10 A2956 RMK AO1
  • 080745Z AUTO 00000KT 1 3/4SM VV007 09/09 A2957 RMK AO1 VIS 1 1/2V3
  • 080724Z AUTO 00000KT 1/2SM VV005 10/10 A2959 RMK AO1

TAF N/A



MET'MAP, la Météo Aéronautique d'un coup d'oeil ! - Copyright ORBIFLY Décembre 2007 - Disclaimer

ORBIFLY MET'MAP TEAM :

Programmation & Développement : Alexandra Zaïnal
Sur une idée originale de : Baudouin d'Aumeries
Assistance à la programmation : Marc-Olivier Méhu
Soutien technique & logistique : Manuel Goepfert

Contact : metmap@orbifly.com




SOURCES & CREDITS :

   NOAA       Earth
Advisory